createdAt,value
2018-11-03T00:02:24.357Z,75.05
2018-11-03T00:04:53.298Z,75.93
2018-11-03T00:07:22.107Z,75.67
2018-11-03T00:09:50.857Z,75.62
2018-11-03T00:12:19.762Z,75.33
2018-11-03T00:14:48.537Z,75.75
2018-11-03T00:17:17.321Z,75.30
2018-11-03T00:19:46.058Z,75.43
2018-11-03T00:22:14.765Z,75.19
2018-11-03T00:24:43.460Z,75.19
2018-11-03T00:27:12.099Z,75.03
2018-11-03T00:29:41.098Z,75.11
2018-11-03T00:32:09.845Z,74.85
2018-11-03T00:34:38.718Z,74.85
2018-11-03T00:37:07.418Z,74.64
2018-11-03T00:39:36.391Z,74.76
2018-11-03T00:42:05.627Z,75.34
2018-11-03T00:44:34.621Z,74.90
2018-11-03T00:47:03.233Z,75.05
2018-11-03T00:49:32.025Z,75.14
2018-11-03T00:52:00.850Z,75.24
2018-11-03T00:54:29.677Z,75.83
2018-11-03T00:56:58.537Z,75.52
2018-11-03T00:59:27.333Z,75.50
2018-11-03T01:01:56.122Z,75.54
2018-11-03T01:04:25.081Z,75.77
2018-11-03T01:06:53.829Z,75.80
2018-11-03T01:09:22.631Z,75.70
2018-11-03T01:11:51.393Z,75.78
2018-11-03T01:14:20.285Z,75.80
2018-11-03T01:16:48.986Z,75.86
2018-11-03T01:19:17.846Z,75.97
2018-11-03T01:21:46.548Z,75.75
2018-11-03T01:24:15.248Z,74.94
2018-11-03T01:26:44.242Z,75.19
2018-11-03T01:29:13.450Z,75.78
2018-11-03T01:31:42.109Z,76.11
2018-11-03T01:34:10.992Z,75.91
2018-11-03T01:36:39.699Z,75.84
2018-11-03T01:39:10.646Z,75.98
2018-11-03T01:41:39.637Z,75.25
2018-11-03T01:44:08.976Z,74.90
2018-11-03T01:46:37.682Z,75.85
2018-11-03T01:49:06.515Z,75.37
2018-11-03T01:51:35.280Z,75.35
2018-11-03T01:54:03.991Z,74.82
2018-11-03T01:56:32.814Z,75.21
2018-11-03T01:59:01.500Z,75.17
2018-11-03T02:01:30.230Z,74.90
2018-11-03T02:03:58.962Z,75.16
2018-11-03T02:06:27.706Z,75.31
2018-11-03T02:08:56.429Z,75.31
2018-11-03T02:11:25.299Z,74.45
2018-11-03T02:13:53.974Z,74.13
2018-11-03T02:16:22.783Z,74.08
2018-11-03T02:18:51.488Z,74.27
2018-11-03T02:21:20.225Z,73.27
2018-11-03T02:23:48.901Z,73.56
2018-11-03T02:26:17.630Z,73.99
2018-11-03T02:28:46.493Z,73.79
2018-11-03T02:31:15.175Z,73.51
2018-11-03T02:33:43.849Z,74.48
2018-11-03T02:36:12.547Z,75.10
2018-11-03T02:38:41.213Z,75.97
2018-11-03T02:41:10.089Z,77.11
2018-11-03T02:43:38.921Z,78.24
2018-11-03T02:46:07.621Z,78.37
2018-11-03T02:48:36.309Z,77.86
2018-11-03T02:51:05.253Z,76.71
2018-11-03T02:53:33.973Z,77.27
2018-11-03T02:56:02.661Z,77.00
2018-11-03T02:58:31.490Z,77.03
2018-11-03T03:01:00.296Z,77.58
2018-11-03T03:03:28.941Z,77.12
2018-11-03T03:05:57.614Z,76.62
2018-11-03T03:08:26.434Z,76.52
2018-11-03T03:10:55.397Z,76.15
2018-11-03T03:13:24.100Z,76.64
2018-11-03T03:15:52.806Z,76.29
2018-11-03T03:18:21.642Z,76.00
2018-11-03T03:20:50.297Z,75.43
2018-11-03T03:23:19.067Z,75.07
2018-11-03T03:25:48.566Z,75.20
2018-11-03T03:28:17.302Z,76.09
2018-11-03T03:30:46.090Z,75.78
2018-11-03T03:33:14.898Z,77.68
2018-11-03T03:35:43.642Z,77.71
2018-11-03T03:38:12.282Z,78.35
2018-11-03T03:40:41.010Z,77.82
2018-11-03T03:43:09.750Z,77.41
2018-11-03T03:45:38.465Z,77.30
2018-11-03T03:48:07.266Z,77.61
2018-11-03T03:50:35.937Z,77.89
2018-11-03T03:53:04.873Z,77.20
2018-11-03T03:55:33.570Z,77.18
2018-11-03T03:58:02.317Z,76.73
2018-11-03T04:00:31.186Z,77.45
2018-11-03T04:03:00.027Z,77.38
2018-11-03T04:05:28.767Z,76.66
2018-11-03T04:07:57.613Z,76.84
2018-11-03T04:10:26.389Z,76.46
2018-11-03T04:12:55.121Z,77.02
2018-11-03T04:15:25.922Z,76.25
2018-11-03T04:17:54.751Z,76.63
2018-11-03T04:20:23.533Z,75.84
2018-11-03T04:22:52.281Z,75.79
2018-11-03T04:25:21.123Z,75.71
2018-11-03T04:27:49.782Z,75.69
2018-11-03T04:30:18.729Z,75.98
2018-11-03T04:32:47.721Z,75.37
2018-11-03T04:35:16.607Z,76.00
2018-11-03T04:37:45.407Z,75.51
2018-11-03T04:40:14.178Z,75.85
2018-11-03T04:42:42.924Z,75.08
2018-11-03T04:45:12.350Z,74.64
2018-11-03T04:47:41.044Z,74.64
2018-11-03T04:50:10.593Z,75.40
2018-11-03T04:52:39.681Z,74.78
2018-11-03T04:55:09.339Z,74.79
2018-11-03T04:57:37.964Z,74.50
2018-11-03T05:00:07.798Z,74.55
2018-11-03T05:02:36.539Z,74.82
2018-11-03T05:05:05.533Z,74.96
2018-11-03T05:07:34.238Z,74.48
2018-11-03T05:10:02.974Z,74.79
2018-11-03T05:12:31.617Z,75.59
2018-11-03T05:15:00.452Z,74.62
2018-11-03T05:17:29.186Z,75.17
2018-11-03T05:19:57.911Z,75.12
2018-11-03T05:22:26.586Z,75.07
2018-11-03T05:24:55.365Z,74.77
2018-11-03T05:27:24.066Z,74.99
2018-11-03T05:29:52.874Z,75.28
2018-11-03T05:32:21.574Z,75.83
2018-11-03T05:34:50.346Z,75.08
2018-11-03T05:37:19.110Z,73.98
2018-11-03T05:39:47.897Z,74.43
2018-11-03T05:42:16.647Z,75.05
2018-11-03T05:44:45.407Z,74.36
2018-11-03T05:47:14.216Z,73.35
2018-11-03T05:49:43.061Z,73.16
2018-11-03T05:52:11.737Z,73.58
2018-11-03T05:54:40.546Z,73.21
2018-11-03T05:57:09.399Z,73.38
2018-11-03T05:59:38.213Z,72.98
2018-11-03T06:02:06.976Z,73.91
2018-11-03T06:04:35.769Z,72.91
2018-11-03T06:07:04.477Z,73.88
2018-11-03T06:09:33.150Z,73.80
2018-11-03T06:12:01.791Z,74.92
2018-11-03T06:14:30.511Z,74.68
2018-11-03T06:16:59.337Z,74.13
2018-11-03T06:19:28.069Z,73.94
2018-11-03T06:21:56.794Z,73.57
2018-11-03T06:24:25.937Z,73.30
2018-11-03T06:26:54.590Z,73.06
2018-11-03T06:29:23.545Z,72.37
2018-11-03T06:31:52.334Z,72.54
2018-11-03T06:34:21.038Z,72.36
2018-11-03T06:36:49.924Z,73.07
2018-11-03T06:39:18.675Z,72.75
2018-11-03T06:41:47.325Z,73.10
2018-11-03T06:44:16.107Z,72.91
2018-11-03T06:46:44.922Z,73.13
2018-11-03T06:49:18.878Z,72.87
2018-11-03T06:51:47.640Z,72.77
2018-11-03T06:54:16.495Z,73.11
2018-11-03T06:56:45.390Z,73.33
2018-11-03T06:59:14.618Z,73.08
2018-11-03T07:01:43.417Z,72.85
2018-11-03T07:04:12.162Z,72.32
2018-11-03T07:06:40.851Z,72.78
2018-11-03T07:09:11.286Z,73.43
2018-11-03T07:11:40.693Z,72.93
2018-11-03T07:14:10.230Z,72.75
2018-11-03T07:16:39.082Z,72.56
2018-11-03T07:19:07.848Z,71.92
2018-11-03T07:21:36.590Z,72.14
2018-11-03T07:24:05.278Z,71.89
2018-11-03T07:26:34.026Z,71.71
2018-11-03T07:29:02.817Z,71.19
2018-11-03T07:31:31.521Z,72.00
2018-11-03T07:34:00.328Z,71.56
2018-11-03T07:36:29.062Z,71.04
2018-11-03T07:38:57.767Z,70.19
2018-11-03T07:41:26.570Z,69.77
2018-11-03T07:43:55.230Z,70.38
2018-11-03T07:46:24.364Z,70.58
2018-11-03T07:48:53.265Z,70.24
2018-11-03T07:51:21.942Z,69.27
2018-11-03T07:53:50.779Z,68.86
2018-11-03T07:56:19.645Z,68.72
2018-11-03T07:58:48.354Z,68.70
2018-11-03T08:01:17.138Z,70.40
2018-11-03T08:03:48.785Z,69.23
2018-11-03T08:06:17.649Z,69.60
2018-11-03T08:08:46.456Z,70.30
2018-11-03T08:11:15.274Z,69.87
2018-11-03T08:13:44.086Z,68.70
2018-11-03T08:16:12.790Z,69.23
2018-11-03T08:18:41.697Z,67.94
2018-11-03T08:21:10.354Z,68.35
2018-11-03T08:23:39.258Z,67.66
2018-11-03T08:26:07.998Z,68.16
2018-11-03T08:28:36.908Z,67.78
2018-11-03T08:31:05.768Z,68.00
2018-11-03T08:33:34.425Z,68.88
2018-11-03T08:36:03.181Z,68.17
2018-11-03T08:38:32.094Z,68.41
2018-11-03T08:41:00.750Z,68.75
2018-11-03T08:43:29.569Z,68.42
2018-11-03T08:45:58.386Z,67.56
2018-11-03T08:48:27.241Z,66.96
2018-11-03T08:50:56.082Z,67.60
2018-11-03T08:53:24.950Z,67.63
2018-11-03T08:55:53.639Z,66.92
2018-11-03T08:58:22.741Z,66.29
2018-11-03T09:00:51.477Z,67.50
2018-11-03T09:03:20.169Z,66.66
2018-11-03T09:05:49.034Z,65.46
2018-11-03T09:08:17.738Z,65.80
2018-11-03T09:10:46.530Z,64.52
2018-11-03T09:13:15.397Z,64.40
2018-11-03T09:15:44.161Z,64.96
2018-11-03T09:18:13.017Z,64.00
2018-11-03T09:20:41.758Z,63.01
2018-11-03T09:23:10.545Z,63.34
2018-11-03T09:25:39.350Z,63.58
2018-11-03T09:28:08.993Z,63.97
2018-11-03T09:30:37.870Z,64.47
2018-11-03T09:33:06.782Z,63.63
2018-11-03T09:35:35.557Z,62.45
2018-11-03T09:38:04.413Z,62.61
2018-11-03T09:40:33.202Z,63.29
2018-11-03T09:43:02.041Z,63.71
2018-11-03T09:45:30.945Z,62.91
2018-11-03T09:47:59.739Z,62.67
2018-11-03T09:50:28.556Z,63.26
2018-11-03T09:52:57.289Z,62.27
2018-11-03T09:55:25.969Z,62.55
2018-11-03T09:57:54.837Z,63.10
2018-11-03T10:00:23.609Z,62.58
2018-11-03T10:02:52.328Z,61.94
2018-11-03T10:05:21.130Z,61.51
2018-11-03T10:07:50.089Z,62.50
2018-11-03T10:10:20.012Z,62.24
2018-11-03T10:12:48.880Z,61.90
2018-11-03T10:15:18.861Z,62.40
2018-11-03T10:17:47.897Z,61.71
2018-11-03T10:20:16.748Z,62.43
2018-11-03T10:22:45.636Z,61.75
2018-11-03T10:25:17.049Z,60.96
2018-11-03T10:27:46.216Z,60.65
2018-11-03T10:30:16.039Z,60.62
2018-11-03T10:32:45.240Z,61.69
2018-11-03T10:35:14.622Z,60.38
2018-11-03T10:37:43.777Z,62.60
2018-11-03T10:40:14.545Z,62.67
2018-11-03T10:42:43.671Z,60.86
2018-11-03T10:45:13.875Z,61.20
2018-11-03T10:47:42.901Z,60.61
2018-11-03T10:50:14.211Z,60.97
2018-11-03T10:52:43.942Z,60.27
2018-11-03T10:55:14.141Z,60.10
2018-11-03T10:57:43.056Z,59.49
2018-11-03T11:00:19.195Z,59.62
2018-11-03T11:02:53.197Z,59.07
2018-11-03T11:05:27.047Z,60.01
2018-11-03T11:08:00.982Z,60.47
2018-11-03T11:10:34.964Z,60.55
2018-11-03T11:13:06.917Z,58.57
2018-11-03T11:15:35.777Z,58.44
2018-11-03T11:18:04.602Z,58.43
2018-11-03T11:20:33.603Z,57.70
2018-11-03T11:23:02.376Z,55.94
2018-11-03T11:25:31.260Z,55.25
2018-11-03T11:28:00.075Z,55.30
2018-11-03T11:30:33.025Z,55.66
2018-11-03T11:33:02.009Z,55.46
2018-11-03T11:35:30.679Z,54.88
2018-11-03T11:37:59.741Z,54.79
2018-11-03T11:40:28.695Z,54.81
2018-11-03T11:42:57.963Z,55.77
2018-11-03T11:45:26.736Z,56.19
2018-11-03T11:47:55.641Z,55.13
2018-11-03T11:50:24.465Z,55.75
2018-11-03T11:52:53.175Z,56.39
2018-11-03T11:55:21.913Z,55.93
2018-11-03T11:57:51.493Z,55.93
2018-11-03T12:00:21.211Z,56.06
2018-11-03T12:02:49.923Z,54.97
2018-11-03T12:05:19.128Z,54.40
2018-11-03T12:07:47.983Z,54.40
2018-11-03T12:10:17.117Z,55.12
2018-11-03T12:12:45.722Z,55.29
2018-11-03T12:15:14.659Z,56.15
2018-11-03T12:17:43.377Z,56.26
2018-11-03T12:20:12.390Z,56.63
2018-11-03T12:22:41.293Z,56.56
2018-11-03T12:25:11.407Z,56.01
2018-11-03T12:27:40.638Z,57.20
2018-11-03T12:30:12.729Z,56.72
2018-11-03T12:32:42.316Z,55.79
2018-11-03T12:35:11.903Z,55.95
2018-11-03T12:37:41.209Z,55.82
2018-11-03T12:40:13.981Z,56.23
2018-11-03T12:42:42.774Z,55.95
2018-11-03T12:45:12.545Z,56.49
2018-11-03T12:47:41.949Z,56.20
2018-11-03T12:50:13.858Z,56.36
2018-11-03T12:52:43.037Z,56.28
2018-11-03T12:55:12.245Z,56.11
2018-11-03T12:57:42.149Z,57.12
2018-11-03T13:00:13.006Z,57.36
2018-11-03T13:02:42.665Z,57.11
2018-11-03T13:05:11.456Z,55.52
2018-11-03T13:07:41.230Z,56.38
2018-11-03T13:10:10.886Z,56.17
2018-11-03T13:12:40.460Z,55.92
2018-11-03T13:15:10.638Z,55.82
2018-11-03T13:17:39.871Z,56.54
2018-11-03T13:20:11.147Z,56.82
2018-11-03T13:22:41.523Z,56.83
2018-11-03T13:25:11.954Z,56.37
2018-11-03T13:27:41.483Z,56.08
2018-11-03T13:30:12.403Z,57.06
2018-11-03T13:32:41.189Z,56.54
2018-11-03T13:35:11.356Z,56.90
2018-11-03T13:37:40.317Z,57.05
2018-11-03T13:40:10.308Z,56.80
2018-11-03T13:42:39.058Z,57.05
2018-11-03T13:45:08.490Z,57.24
2018-11-03T13:47:38.384Z,57.49
2018-11-03T13:50:11.488Z,58.00
2018-11-03T13:52:41.418Z,56.88
2018-11-03T13:55:10.758Z,56.72
2018-11-03T13:57:40.122Z,57.37
2018-11-03T14:00:11.328Z,57.32
2018-11-03T14:02:40.789Z,57.46
2018-11-03T14:05:10.341Z,58.07
2018-11-03T14:07:39.050Z,57.46
2018-11-03T14:10:09.836Z,58.10
2018-11-03T14:12:38.684Z,57.42
2018-11-03T14:15:08.748Z,57.34
2018-11-03T14:17:37.566Z,57.47
2018-11-03T14:20:07.629Z,58.23
2018-11-03T14:22:36.403Z,58.07
2018-11-03T14:25:05.893Z,58.11
2018-11-03T14:27:34.570Z,58.33
2018-11-03T14:30:03.301Z,58.91
2018-11-03T14:32:32.126Z,59.18
2018-11-03T14:35:00.922Z,59.75
2018-11-03T14:37:29.606Z,59.07
2018-11-03T14:39:58.591Z,59.30
2018-11-03T14:42:27.549Z,59.67
2018-11-03T14:44:56.507Z,58.86
2018-11-03T14:47:25.306Z,59.84
2018-11-03T14:49:54.085Z,60.12
2018-11-03T14:52:23.018Z,60.96
2018-11-03T14:54:52.143Z,60.59
2018-11-03T14:57:21.732Z,60.68
2018-11-03T14:59:50.545Z,60.74
2018-11-03T15:02:19.261Z,60.90
2018-11-03T15:04:47.938Z,60.67
2018-11-03T15:07:16.643Z,60.85
2018-11-03T15:09:45.297Z,61.53
2018-11-03T15:12:13.992Z,60.77
2018-11-03T15:14:42.836Z,60.91
2018-11-03T15:17:11.485Z,60.91
2018-11-03T15:19:40.193Z,61.54
2018-11-03T15:22:08.990Z,61.75
2018-11-03T15:24:37.679Z,61.63
2018-11-03T15:27:08.170Z,61.89
2018-11-03T15:29:36.994Z,61.97
2018-11-03T15:32:05.880Z,61.83
2018-11-03T15:34:34.750Z,62.02
2018-11-03T15:37:03.373Z,62.04
2018-11-03T15:39:32.026Z,62.40
2018-11-03T15:42:00.975Z,62.67
2018-11-03T15:44:29.757Z,62.90
2018-11-03T15:46:58.573Z,62.56
2018-11-03T15:49:27.260Z,62.56
2018-11-03T15:51:55.974Z,63.26
2018-11-03T15:54:24.689Z,63.61
2018-11-03T15:56:53.424Z,63.28
2018-11-03T15:59:22.185Z,63.18
2018-11-03T16:01:51.042Z,63.53
2018-11-03T16:04:19.810Z,63.50
2018-11-03T16:06:48.498Z,63.84
2018-11-03T16:09:17.174Z,64.05
2018-11-03T16:11:45.818Z,64.43
2018-11-03T16:14:14.558Z,64.11
2018-11-03T16:16:43.238Z,64.32
2018-11-03T16:19:12.133Z,64.08
2018-11-03T16:21:40.807Z,64.04
2018-11-03T16:24:09.637Z,64.46
2018-11-03T16:26:38.441Z,64.42
2018-11-03T16:29:07.143Z,64.53
2018-11-03T16:31:35.909Z,64.39
2018-11-03T16:34:04.844Z,64.46
2018-11-03T16:36:33.495Z,64.74
2018-11-03T16:39:02.249Z,64.93
2018-11-03T16:41:30.928Z,64.74
2018-11-03T16:43:59.821Z,64.83
2018-11-03T16:46:28.477Z,65.17
2018-11-03T16:48:57.272Z,64.74
2018-11-03T16:51:26.078Z,65.13
2018-11-03T16:53:54.750Z,65.07
2018-11-03T16:56:23.487Z,65.66
2018-11-03T16:58:52.177Z,65.68
2018-11-03T17:01:20.989Z,65.86
2018-11-03T17:03:49.921Z,66.06
2018-11-03T17:06:18.695Z,66.01
2018-11-03T17:08:47.354Z,66.05
2018-11-03T17:11:16.138Z,66.39
2018-11-03T17:13:44.922Z,66.65
2018-11-03T17:16:14.141Z,66.67
2018-11-03T17:18:43.022Z,65.96
2018-11-03T17:21:11.738Z,65.92
2018-11-03T17:23:40.442Z,66.52
2018-11-03T17:26:09.280Z,66.56
2018-11-03T17:28:38.133Z,66.19
2018-11-03T17:31:06.969Z,66.77
2018-11-03T17:33:35.741Z,66.74
2018-11-03T17:36:04.578Z,66.67
2018-11-03T17:38:33.400Z,66.49
2018-11-03T17:41:02.156Z,66.51
2018-11-03T17:43:31.073Z,66.28
2018-11-03T17:45:59.862Z,66.14
2018-11-03T17:48:28.685Z,66.57
2018-11-03T17:50:57.402Z,67.10
2018-11-03T17:53:26.288Z,67.05
2018-11-03T17:55:55.037Z,67.60
2018-11-03T17:58:23.797Z,67.22
2018-11-03T18:00:52.478Z,66.89
2018-11-03T18:03:21.188Z,67.81
2018-11-03T18:05:50.121Z,67.95
2018-11-03T18:08:18.806Z,67.44
2018-11-03T18:10:47.522Z,68.09
2018-11-03T18:13:16.569Z,68.03
2018-11-03T18:15:45.222Z,68.46
2018-11-03T18:18:13.937Z,67.23
2018-11-03T18:20:42.642Z,67.15
2018-11-03T18:23:11.330Z,67.43
2018-11-03T18:25:40.058Z,67.68
2018-11-03T18:28:08.909Z,67.51
2018-11-03T18:30:37.680Z,67.69
2018-11-03T18:33:06.524Z,67.62
2018-11-03T18:35:35.601Z,67.74
2018-11-03T18:38:04.291Z,68.25
2018-11-03T18:40:33.133Z,67.85
2018-11-03T18:43:01.994Z,68.36
2018-11-03T18:45:30.635Z,68.21
2018-11-03T18:47:59.385Z,68.87
2018-11-03T18:50:28.026Z,68.94
2018-11-03T18:52:56.753Z,68.90
2018-11-03T18:55:25.458Z,69.14
2018-11-03T18:57:54.256Z,68.88
2018-11-03T19:00:23.258Z,68.96
2018-11-03T19:02:51.967Z,68.59
2018-11-03T19:05:20.713Z,68.40
2018-11-03T19:07:50.061Z,68.86
2018-11-03T19:10:18.723Z,68.99
2018-11-03T19:12:47.406Z,68.96
2018-11-03T19:15:16.231Z,69.28
2018-11-03T19:17:45.101Z,69.33
2018-11-03T19:20:15.121Z,69.63
2018-11-03T19:22:43.956Z,69.29
2018-11-03T19:25:13.942Z,69.08
2018-11-03T19:27:42.775Z,69.55
2018-11-03T19:30:12.777Z,69.49
2018-11-03T19:32:42.997Z,69.86
2018-11-03T19:35:11.917Z,69.58
2018-11-03T19:37:41.250Z,69.51
2018-11-03T19:40:11.737Z,69.15
2018-11-03T19:42:41.095Z,69.22
2018-11-03T19:45:10.670Z,69.65
2018-11-03T19:47:39.626Z,69.92
2018-11-03T19:50:09.309Z,70.17
2018-11-03T19:52:38.149Z,69.90
2018-11-03T19:55:06.973Z,70.04
2018-11-03T19:57:35.902Z,69.86
2018-11-03T20:00:05.790Z,70.18
2018-11-03T20:02:34.525Z,70.46
2018-11-03T20:05:03.165Z,70.80
2018-11-03T20:07:31.902Z,70.62
2018-11-03T20:10:00.708Z,70.75
2018-11-03T20:12:29.542Z,70.63
2018-11-03T20:14:58.436Z,70.61
2018-11-03T20:17:27.320Z,70.57
2018-11-03T20:19:56.103Z,70.76
2018-11-03T20:22:25.366Z,70.68
2018-11-03T20:24:54.047Z,70.56
2018-11-03T20:27:22.895Z,70.94
2018-11-03T20:29:51.600Z,70.13
2018-11-03T20:32:20.275Z,71.18
2018-11-03T20:34:48.916Z,71.06
2018-11-03T20:37:17.623Z,70.78
2018-11-03T20:39:46.358Z,71.21
2018-11-03T20:42:15.054Z,71.02
2018-11-03T20:44:43.862Z,71.12
2018-11-03T20:47:12.548Z,71.63
2018-11-03T20:49:41.315Z,71.37
2018-11-03T20:52:10.068Z,71.61
2018-11-03T20:54:38.833Z,71.67
2018-11-03T20:57:07.518Z,72.09
2018-11-03T20:59:36.285Z,71.62
2018-11-03T21:02:05.044Z,72.04
2018-11-03T21:04:33.847Z,71.43
2018-11-03T21:07:02.565Z,71.15
2018-11-03T21:09:31.318Z,71.17
2018-11-03T21:12:00.057Z,71.23
2018-11-03T21:14:28.726Z,71.10
2018-11-03T21:16:57.646Z,71.60
2018-11-03T21:19:26.391Z,72.00
2018-11-03T21:21:55.217Z,72.16
2018-11-03T21:24:23.959Z,72.04
2018-11-03T21:26:52.869Z,71.75
2018-11-03T21:29:21.662Z,71.80
2018-11-03T21:31:50.472Z,72.16
2018-11-03T21:34:19.193Z,72.96
2018-11-03T21:36:47.909Z,72.71
2018-11-03T21:39:16.685Z,72.94
2018-11-03T21:41:45.551Z,73.20
2018-11-03T21:44:14.287Z,73.58
2018-11-03T21:46:43.071Z,73.18
2018-11-03T21:49:11.703Z,73.19
2018-11-03T21:51:40.702Z,72.99
2018-11-03T21:54:09.650Z,73.00
2018-11-03T21:56:38.418Z,73.15
2018-11-03T21:59:07.262Z,73.17
2018-11-03T22:01:36.010Z,72.95
2018-11-03T22:04:04.820Z,72.86
2018-11-03T22:06:33.715Z,73.03
2018-11-03T22:09:02.562Z,73.39
2018-11-03T22:11:31.238Z,73.51
2018-11-03T22:14:00.062Z,73.07
2018-11-03T22:16:28.958Z,72.62
2018-11-03T22:18:57.674Z,72.84
2018-11-03T22:21:26.535Z,72.78
2018-11-03T22:23:55.278Z,72.66
2018-11-03T22:26:24.279Z,72.79
2018-11-03T22:28:53.090Z,72.78
2018-11-03T22:31:21.799Z,72.77
2018-11-03T22:33:50.501Z,72.46
2018-11-03T22:36:19.224Z,72.86
2018-11-03T22:38:48.124Z,72.76
2018-11-03T22:41:16.881Z,73.04
2018-11-03T22:43:45.557Z,73.18
2018-11-03T22:46:14.337Z,72.87
2018-11-03T22:48:43.131Z,73.02
2018-11-03T22:51:16.596Z,73.40
2018-11-03T22:53:46.659Z,73.18
2018-11-03T22:56:15.882Z,73.41
2018-11-03T22:58:44.533Z,73.86
2018-11-03T23:01:13.255Z,73.75
2018-11-03T23:03:42.003Z,74.19
2018-11-03T23:06:10.770Z,74.02
2018-11-03T23:08:39.493Z,73.67
2018-11-03T23:11:08.293Z,73.93
2018-11-03T23:13:36.968Z,73.63
2018-11-03T23:16:06.054Z,73.79
2018-11-03T23:18:34.738Z,73.85
2018-11-03T23:21:03.449Z,74.14
2018-11-03T23:23:32.097Z,74.39
2018-11-03T23:26:00.821Z,73.91
2018-11-03T23:28:29.722Z,73.87
2018-11-03T23:30:58.558Z,73.72
2018-11-03T23:33:27.270Z,74.26
2018-11-03T23:35:56.030Z,74.48
2018-11-03T23:38:24.906Z,74.24
2018-11-03T23:40:53.577Z,74.56
2018-11-03T23:43:22.262Z,74.62
2018-11-03T23:45:51.001Z,74.84
2018-11-03T23:48:19.853Z,74.55
2018-11-03T23:50:48.641Z,74.93
2018-11-03T23:53:17.292Z,75.23
2018-11-03T23:55:46.009Z,75.17
2018-11-03T23:58:14.656Z,75.42
